ftp/pub/mcmurdo/arrivalheights/2008/May/080503.txt
5/3/08
Time Wind Dir Wind Spd Wind Gust Hum In Humidity Temp In Temp Raw Barom Tot Rain
° kts kts % % °C °C mb mm
0:00 43 31 33 1 100 20.4 -17.5 970.17 0.00
0:20 47 29 30 1 100 20.2 -17.1 970.17 0.00
0:40 51 26 29 1 100 20.1 -16.9 969.87 0.00
1:00 50 19 21 1 100 19.9 -17.3 969.67 0.00
1:20 52 24 24 1 100 19.9 -17.5 969.77 0.00
1:40 47 23 23 1 100 19.9 -17.6 969.73 0.00
2:00 46 23 28 1 100 19.8 -17.6 969.36 0.00
2:20 41 23 30 1 100 19.7 -19.1 969.53 0.00
2:40 43 23 27 1 100 19.8 -18.8 969.73 0.00
3:00 26 17 23 1 100 19.9 -20.4 969.94 0.00
3:20 34 20 21 1 100 19.9 -20.3 970.07 0.00
3:40 37 20 23 1 100 20.0 -19.4 970.11 0.00
4:00 34 20 23 1 100 20.1 -20.4 970.17 0.00
4:20 33 23 24 1 100 20.2 -21.0 969.90 0.00
4:40 27 19 23 1 100 20.3 -21.8 969.97 0.00
5:00 34 23 26 1 100 20.4 -22.2 970.04 0.00
5:20 36 26 32 1 100 20.3 -22.3 969.83 0.00
5:40 34 24 29 1 100 20.3 -21.9 969.90 0.00
6:00 36 25 30 1 100 20.3 -22.2 969.77 0.00
6:20 34 23 26 1 100 20.2 -22.3 969.80 0.00
6:40 27 17 23 1 100 20.2 -22.7 969.87 0.00
7:00 36 25 25 1 100 20.2 -22.7 969.67 0.00
7:20 37 23 26 1 100 20.2 -22.0 969.67 0.00
7:40 36 25 26 1 100 20.1 -21.8 969.53 0.00
8:00 36 21 26 1 100 20.1 -22.0 969.67 0.00
8:20 36 23 25 1 100 20.1 -21.9 969.53 0.00
8:40 37 21 23 1 100 20.1 -22.1 969.63 0.00
9:00 34 21 23 1 100 20.2 -22.2 969.50 0.00
9:20 33 20 20 1 100 20.2 -21.9 969.33 0.00
9:40 36 14 19 1 100 20.3 -21.0 969.29 0.00
10:00 38 17 20 1 100 20.3 -20.2 969.39 0.00
10:20 30 15 18 1 100 20.3 -20.5 969.33 0.00
10:40 29 13 17 1 100 20.4 -20.7 969.39 0.00
11:00 38 12 17 1 100 20.5 -20.0 969.23 0.00
11:20 51 7 10 1 100 20.6 -18.6 969.39 0.00
11:40 49 7 10 1 100 20.7 -18.3 969.23 0.00
12:00 55 7 11 1 100 20.7 -17.9 969.09 0.00
12:20 72 10 11 1 100 19.9 -20.1 969.16 0.00
12:40 95 8 10 1 100 19.6 -18.8 969.26 0.00
13:00 85 9 10 1 100 19.8 -17.1 969.16 0.00
13:20 102 5 7 1 100 20.0 -16.7 969.09 0.00
13:40 112 3 5 1 100 20.2 -17.0 969.06 0.00
14:00 135 3 3 1 100 20.4 -17.7 969.09 0.00
14:20 184 3 3 1 100 20.7 -17.4 969.09 0.00
14:40 158 3 3 1 100 19.7 -18.7 969.29 0.00
15:00 173 7 9 1 100 19.7 -17.9 969.29 0.00
15:20 160 6 9 1 100 20.0 -18.0 969.29 0.00
15:40 162 0 2 1 100 20.3 -18.7 969.16 0.00
16:00 162 1 2 1 100 20.5 -18.4 968.99 0.00
16:20 111 3 3 1 100 20.7 -19.1 968.72 0.00
16:40 319 4 8 1 100 20.0 -19.7 968.31 0.00
17:00 323 10 10 1 100 19.6 -19.7 968.51 0.00
17:20 315 7 8 1 100 19.6 -19.6 968.48 0.00
17:40 322 9 10 1 100 19.7 -17.5 968.38 0.00
18:00 290 10 10 1 100 19.8 -17.6 968.21 0.00
18:20 318 4 5 1 100 19.9 -17.9 968.31 0.00
18:40 304 1 4 1 100 20.1 -18.2 968.28 0.00
19:00 331 4 5 1 100 20.2 -17.6 968.24 0.00
19:20 358 6 7 1 100 20.4 -17.1 968.07 0.00
19:40 324 10 10 1 100 20.6 -17.2 967.80 0.00
20:00 333 12 14 1 100 20.6 -16.5 967.70 0.00
20:20 322 10 12 1 100 20.4 -16.8 967.70 0.00
20:40 315 12 15 1 100 20.4 -16.1 967.63 0.00
21:00 333 18 18 1 100 20.2 -16.3 967.57 0.00
21:20 335 16 16 1 100 19.9 -15.8 967.80 0.00
21:40 333 13 16 1 100 19.7 -15.6 967.84 0.00
22:00 344 14 16 1 100 19.6 -15.3 967.63 0.00
22:20 320 10 12 1 100 19.6 -15.6 968.24 0.00
22:40 358 10 11 1 100 19.7 -15.2 968.34 0.00
23:00 359 3 3 1 100 19.9 -13.5 968.14 0.00
23:20 176 3 5 1 100 20.2 -12.8 968.41 0.00
23:40 134 9 10 1 100 20.5 -12.6 968.85 0.00


